• Join FlightAware (Why Join?)
  • Login
  • US Flag 
06:14AM EDT


 

Airport Tracker/Info


-or-


 

Live Flight TrackerFlight Track Log ✈ N210PM ✈ 26-Jul-2013 ✈ KLNK - KSTJ

Flight Track Log - Related Links

Times and Time Zones

All times are in EDT time to prevent confusion due to time zone crossing. See the N210PM flight status page for this flight to view local times or setup timezone preferences in your user account.

Time Position Orientation Groundspeed Altitude Reporting Facility
EDT Latitude Longitude Course Direction KTS MPH feet Rate Location/Type
09:04AM 40.8547 -96.7442 44° Northeast 147 169 1,700  Level Minneapolis Center
09:06AM 40.8931 -96.6956 44° Northeast 184 212 4,700 2,220 Climbing Minneapolis Center
09:07AM 40.8561 -96.6383 130° Southeast 201 231 6,900 2,100 Climbing Minneapolis Center
09:08AM 40.8200 -96.5775 128° Southeast 208 239 9,100 2,040 Climbing Minneapolis Center
09:09AM 40.7814 -96.5142 129° Southeast 218 251 11,200 1,980 Climbing Minneapolis Center
09:10AM 40.7414 -96.4500 129° Southeast 224 258 13,200 1,800 Climbing Minneapolis Center
09:11AM 40.6919 -96.3689 129° Southeast 230 265 15,000 840 Climbing Minneapolis Center
09:12AM 40.6411 -96.2886 130° Southeast 254 292 15,000  Level Minneapolis Center
09:13AM 40.5772 -96.1800 128° Southeast 328 377 15,000  Level Minneapolis Center
09:14AM 40.5256 -96.0925 128° Southeast 334 384 15,000  Level Minneapolis Center
09:15AM 40.4692 -95.9975 128° Southeast 334 384 15,000  Level Minneapolis Center
09:16AM 40.4128 -95.9053 129° Southeast 324 373 15,000  Level Minneapolis Center
09:17AM 40.3561 -95.8106 128° Southeast 327 376 15,000  Level Minneapolis Center
09:18AM 40.2931 -95.7278 135° Southeast 330 380 15,000 -360 Level Minneapolis Center
09:19AM 40.2228 -95.6147 129° Southeast 333 383 14,300 -1,200 Descending Minneapolis Center
09:20AM 40.1667 -95.5253 129° Southeast 325 374 12,600 -1,680 Descending Minneapolis Center
09:21AM 40.1097 -95.4367 130° Southeast 312 359 10,900 -1,620 Descending Kansas City Center
09:22AM 40.0597 -95.3581 130° Southeast 297 342 9,400 -1,500 Descending Kansas City Center
09:23AM 40.0100 -95.2800 130° Southeast 292 336 7,900 -1,620 Descending Kansas City Center
09:24AM 39.9539 -95.1906 129° Southeast 282 325 6,200 -1,500 Descending Kansas City Center
09:25AM 39.9075 -95.1206 131° Southeast 269 310 4,900 -1,260 Descending Kansas City Center
09:26AM 39.8569 -95.0414 130° Southeast 253 291 3,600 -960 Descending Kansas City Center
09:27AM 39.8156 -94.9761 130° Southeast 245 282 3,000 -300 Descending Kansas City Center
09:28AM 39.7714 -94.9464 153° Southeast 207 238 3,000 -540 Level Kansas City Center
09:29AM 39.7222 -94.9328 168° South 178 205 2,000 -900 Descending Kansas City Center
09:30AM 39.7431 -94.9058 45° Northeast 138 159 1,200 -780 Descending Kansas City Center
09:32AM 39.7667 -94.9000 North  Level FlightAware Approximate
09:39AM 39.7719 -94.9097 North  Level Estimated